Time;durP1;ratioP1;P1;durP2;ratioP2;P2;SDS_P1;SDS_P2;PMS_P1;PMS_P2;Temp;Humidity;BMP_temperature;BMP_pressure;BME280_temperature;BME280_humidity;BME280_pressure;Samples;Min_cycle;Max_cycle;Signal;HPM_P1;HPM_P2
2021/08/05 00:01:38;;;;;;;16.13;14.52;;;19.60;99.90;;;;;;5047165;28;20469;-68
2021/08/05 00:04:04;;;;;;;16.02;14.15;;;19.60;99.90;;;;;;5048444;28;20029;-68
2021/08/05 00:06:30;;;;;;;15.02;13.60;;;19.60;99.90;;;;;;5049932;28;20021;-68
2021/08/05 00:08:56;;;;;;;15.35;13.73;;;19.60;99.90;;;;;;5046401;28;20021;-68
2021/08/05 00:11:21;;;;;;;14.55;12.82;;;19.60;99.90;;;;;;5051933;28;20389;-68
2021/08/05 00:13:47;;;;;;;16.70;15.00;;;19.60;99.90;;;;;;5048389;28;20048;-68
2021/08/05 00:16:13;;;;;;;16.15;14.45;;;19.50;99.90;;;;;;5052384;28;20017;-68
2021/08/05 00:18:38;;;;;;;15.10;13.60;;;19.50;99.90;;;;;;5054899;28;20508;-68
2021/08/05 00:21:04;;;;;;;15.45;13.88;;;19.50;99.90;;;;;;5046590;28;20029;-68
2021/08/05 00:23:30;;;;;;;15.02;13.52;;;19.50;99.90;;;;;;5052777;28;20082;-69
2021/08/05 00:25:55;;;;;;;14.82;13.27;;;19.50;99.90;;;;;;5050576;28;20504;-69
2021/08/05 00:28:21;;;;;;;15.85;13.73;;;19.50;99.90;;;;;;5052799;28;20445;-69
2021/08/05 00:30:47;;;;;;;16.10;14.50;;;19.50;99.90;;;;;;5047358;28;20025;-68
2021/08/05 00:33:12;;;;;;;17.17;15.38;;;19.50;99.90;;;;;;5048840;28;20029;-67
2021/08/05 00:35:38;;;;;;;16.38;14.68;;;19.50;99.90;;;;;;5052540;28;20104;-67
2021/08/05 00:38:04;;;;;;;16.75;15.13;;;19.60;99.90;;;;;;5057525;28;20032;-67
2021/08/05 00:40:29;;;;;;;17.98;16.17;;;19.50;99.90;;;;;;5055970;28;20060;-67
2021/08/05 00:42:55;;;;;;;16.05;14.48;;;19.50;99.90;;;;;;5052921;28;20025;-68
2021/08/05 00:45:20;;;;;;;16.27;14.68;;;19.50;99.90;;;;;;5055297;28;20476;-68
2021/08/05 00:47:46;;;;;;;16.85;13.77;;;19.50;99.90;;;;;;5047242;28;20032;-68
2021/08/05 00:50:12;;;;;;;15.85;14.25;;;19.50;99.90;;;;;;5047223;28;20385;-68
2021/08/05 00:52:38;;;;;;;14.73;13.23;;;19.40;99.90;;;;;;5047247;28;20469;-68
2021/08/05 00:55:05;;;;;;;16.52;14.98;;;19.50;99.90;;;;;;5049917;28;20036;-70
2021/08/05 00:57:31;;;;;;;16.25;14.60;;;19.50;99.90;;;;;;5050301;28;20147;-67
2021/08/05 00:59:57;;;;;;;15.40;13.93;;;19.50;99.90;;;;;;5052171;28;20042;-67
2021/08/05 01:02:29;;;;;;;20.60;14.02;;;19.40;99.90;;;;;;5044541;28;20030;-69
2021/08/05 01:04:56;;;;;;;17.23;15.40;;;19.20;99.90;;;;;;5047032;28;20025;-69
2021/08/05 01:07:26;;;;;;;14.80;13.23;;;19.30;99.90;;;;;;5042733;28;20030;-69
2021/08/05 01:09:56;;;;;;;14.20;12.65;;;19.20;99.90;;;;;;5046472;28;20159;-69
2021/08/05 01:12:34;;;;;;;14.02;11.75;;;19.20;99.90;;;;;;5045461;28;20025;-69
2021/08/05 01:15:24;;;;;;;15.68;13.65;;;19.20;99.90;;;;;;5050490;28;20039;-68
2021/08/05 01:17:56;;;;;;;16.00;14.38;;;19.30;99.90;;;;;;5053829;28;20056;-71
2021/08/05 01:20:23;;;;;;;16.08;14.60;;;19.20;99.90;;;;;;5048401;28;20091;-70
2021/08/05 01:23:11;;;;;;;15.75;13.90;;;19.30;99.90;;;;;;5047352;28;20021;-68
2021/08/05 01:25:57;;;;;;;13.68;12.30;;;19.20;99.90;;;;;;5048676;28;20551;-69
2021/08/05 01:28:23;;;;;;;13.68;12.38;;;19.10;99.90;;;;;;5044217;28;20032;-69
2021/08/05 01:30:51;;;;;;;14.43;13.13;;;19.10;99.90;;;;;;5047798;28;20032;-68
2021/08/05 01:33:19;;;;;;;17.70;15.80;;;19.10;99.90;;;;;;5049843;28;20025;-68
2021/08/05 01:35:45;;;;;;;17.92;14.45;;;19.20;99.90;;;;;;5046839;28;20075;-69
2021/08/05 01:38:14;;;;;;;16.65;14.95;;;19.20;99.90;;;;;;5050478;28;20050;-68
2021/08/05 01:40:40;;;;;;;15.13;13.68;;;19.20;99.90;;;;;;5052533;28;20116;-68
2021/08/05 01:43:06;;;;;;;18.38;16.38;;;19.30;99.90;;;;;;5046950;28;20036;-69
2021/08/05 01:45:34;;;;;;;17.20;14.57;;;19.20;99.90;;;;;;5051397;28;20037;-68
2021/08/05 01:48:01;;;;;;;17.08;15.15;;;19.20;99.90;;;;;;5047560;28;20028;-68
2021/08/05 01:50:27;;;;;;;18.50;16.60;;;19.10;99.90;;;;;;5055342;28;20103;-68
2021/08/05 01:52:54;;;;;;;21.52;19.40;;;19.10;99.90;;;;;;5044951;28;20108;-68
2021/08/05 01:55:19;;;;;;;18.33;15.68;;;18.90;99.90;;;;;;5054067;28;20111;-68
2021/08/05 01:57:45;;;;;;;17.13;15.15;;;19.00;99.90;;;;;;5047163;28;20433;-68
2021/08/05 02:00:11;;;;;;;17.08;15.38;;;19.10;99.90;;;;;;5050488;28;20086;-68
2021/08/05 02:02:37;;;;;;;16.17;14.60;;;19.10;99.90;;;;;;5054819;28;20024;-68
2021/08/05 02:05:48;;;;;;;18.33;16.55;;;19.20;99.90;;;;;;5049403;28;20048;-68
2021/08/05 02:08:19;;;;;;;16.02;14.43;;;19.20;99.90;;;;;;5055962;28;20040;-68
2021/08/05 02:10:45;;;;;;;15.90;14.35;;;19.20;99.90;;;;;;5051754;28;20391;-68
2021/08/05 02:13:17;;;;;;;14.98;13.48;;;19.30;99.90;;;;;;5045126;28;20021;-69
2021/08/05 02:15:48;;;;;;;16.47;14.83;;;19.20;99.90;;;;;;5043201;28;20029;-68
2021/08/05 02:18:14;;;;;;;15.00;13.20;;;19.10;99.90;;;;;;5046921;28;20032;-68
2021/08/05 02:20:43;;;;;;;14.98;13.13;;;19.00;99.90;;;;;;5046826;28;20037;-68
2021/08/05 02:23:11;;;;;;;14.75;13.25;;;18.90;99.90;;;;;;5051470;28;20033;-68
2021/08/05 02:25:38;;;;;;;13.05;11.75;;;18.90;99.90;;;;;;5046850;28;20025;-68
2021/08/05 02:28:05;;;;;;;16.13;14.48;;;19.00;99.90;;;;;;5047361;28;20590;-69
2021/08/05 02:30:31;;;;;;;15.60;14.05;;;18.90;99.90;;;;;;5055191;28;20033;-68
2021/08/05 02:32:57;;;;;;;17.73;15.80;;;18.90;99.90;;;;;;5046891;28;20056;-69
2021/08/05 02:35:23;;;;;;;18.48;15.65;;;18.90;99.90;;;;;;5048867;28;20065;-68
2021/08/05 02:37:48;;;;;;;16.00;14.45;;;18.90;99.90;;;;;;5053912;28;20495;-68
2021/08/05 02:40:15;;;;;;;17.95;15.10;;;18.90;99.90;;;;;;5057316;28;20096;-68
2021/08/05 02:42:41;;;;;;;17.98;16.35;;;19.00;99.90;;;;;;5048505;28;20758;-69
2021/08/05 02:45:07;;;;;;;19.80;17.65;;;19.10;99.90;;;;;;5051856;28;20029;-69
2021/08/05 02:47:33;;;;;;;16.85;15.30;;;19.10;99.90;;;;;;5050279;28;20059;-68
2021/08/05 02:50:00;;;;;;;18.92;17.08;;;19.10;99.90;;;;;;5053435;28;20492;-68
2021/08/05 02:52:26;;;;;;;22.33;20.08;;;19.10;99.90;;;;;;5057812;28;20447;-69
2021/08/05 02:54:53;;;;;;;23.55;21.10;;;19.10;99.90;;;;;;5055021;28;20084;-68
2021/08/05 02:57:19;;;;;;;25.20;22.70;;;19.10;99.90;;;;;;5058689;28;20024;-68
2021/08/05 02:59:45;;;;;;;22.83;20.42;;;19.10;99.90;;;;;;5058547;28;20064;-68
2021/08/05 03:02:14;;;;;;;19.40;15.95;;;19.10;99.90;;;;;;5053585;28;20025;-68
2021/08/05 03:04:40;;;;;;;18.65;16.85;;;19.00;99.90;;;;;;5051267;28;20017;-69
2021/08/05 03:07:07;;;;;;;20.98;18.88;;;18.90;99.90;;;;;;5051367;28;20040;-68
2021/08/05 03:09:33;;;;;;;24.42;21.90;;;18.80;99.90;;;;;;5056632;28;20013;-69
2021/08/05 03:11:59;;;;;;;23.52;21.25;;;18.70;99.90;;;;;;5054113;28;20082;-68
2021/08/05 03:14:24;;;;;;;26.77;21.02;;;18.80;99.90;;;;;;5055251;28;20028;-69
2021/08/05 03:16:50;;;;;;;20.75;18.63;;;18.90;99.90;;;;;;5054024;28;20029;-68
2021/08/05 03:19:15;;;;;;;24.25;21.58;;;18.90;99.90;;;;;;5056975;28;20017;-68
2021/08/05 03:21:41;;;;;;;22.80;20.45;;;18.90;99.90;;;;;;5052186;28;20032;-68
2021/08/05 03:24:07;;;;;;;20.95;18.60;;;18.90;99.90;;;;;;5052804;28;20022;-68
2021/08/05 03:26:32;;;;;;;22.02;19.85;;;18.90;99.90;;;;;;5052565;28;20516;-68
2021/08/05 03:28:58;;;;;;;22.08;19.85;;;18.80;99.90;;;;;;5054563;28;20036;-68
2021/08/05 03:31:23;;;;;;;25.90;23.30;;;18.80;99.90;;;;;;5049175;28;20030;-68
2021/08/05 03:33:49;;;;;;;26.95;22.90;;;18.90;99.90;;;;;;5053278;28;20445;-68
2021/08/05 03:36:15;;;;;;;28.70;25.15;;;18.90;99.90;;;;;;5056798;28;20025;-68
2021/08/05 03:38:40;;;;;;;23.90;21.38;;;18.80;99.90;;;;;;5056866;28;20404;-68
2021/08/05 03:41:06;;;;;;;22.98;20.58;;;18.90;99.90;;;;;;5050270;28;20120;-68
2021/08/05 03:43:33;;;;;;;22.88;20.23;;;18.90;99.90;;;;;;5050089;28;20466;-68
2021/08/05 03:45:58;;;;;;;22.52;20.33;;;18.90;99.90;;;;;;5051025;28;20029;-68
2021/08/05 03:48:24;;;;;;;23.52;21.15;;;18.90;99.90;;;;;;5051400;28;20036;-68
2021/08/05 03:50:50;;;;;;;23.52;21.10;;;18.90;99.90;;;;;;5050524;28;20036;-68
2021/08/05 03:53:15;;;;;;;23.90;20.52;;;18.90;99.90;;;;;;5051029;28;20060;-68
2021/08/05 03:55:41;;;;;;;22.40;20.27;;;18.90;99.90;;;;;;5060084;28;20476;-68
2021/08/05 03:58:09;;;;;;;21.17;18.83;;;18.90;99.90;;;;;;5063129;28;20086;-68
2021/08/05 04:00:34;;;;;;;22.50;20.08;;;18.80;99.90;;;;;;5059223;28;20503;-68
2021/08/05 04:03:00;;;;;;;21.38;19.23;;;18.80;99.90;;;;;;5063568;28;20055;-68
2021/08/05 04:05:26;;;;;;;20.90;18.70;;;18.70;99.90;;;;;;5061989;28;20029;-68
2021/08/05 04:07:52;;;;;;;20.23;18.13;;;18.70;99.90;;;;;;5057440;28;20025;-68
2021/08/05 04:10:17;;;;;;;21.65;19.42;;;18.70;99.90;;;;;;5065231;28;20024;-68
2021/08/05 04:12:43;;;;;;;22.63;20.33;;;18.70;99.90;;;;;;5049489;28;20021;-68
2021/08/05 04:15:09;;;;;;;23.77;21.08;;;18.70;99.90;;;;;;5053406;28;20029;-68
2021/08/05 04:17:35;;;;;;;26.48;23.88;;;18.70;99.90;;;;;;5061318;28;20040;-68
2021/08/05 04:20:02;;;;;;;23.02;20.60;;;18.70;99.90;;;;;;5050893;28;20034;-68
2021/08/05 04:22:28;;;;;;;25.85;22.50;;;18.70;99.90;;;;;;5056971;28;20021;-68
2021/08/05 04:24:53;;;;;;;24.88;22.15;;;18.70;99.90;;;;;;5055867;28;20075;-68
2021/08/05 04:27:19;;;;;;;27.10;24.40;;;18.70;99.90;;;;;;5056731;28;20483;-70
2021/08/05 04:29:44;;;;;;;28.02;24.42;;;18.70;99.90;;;;;;5062340;28;20032;-68
2021/08/05 04:32:10;;;;;;;26.63;23.73;;;18.70;99.90;;;;;;5055317;28;20423;-68
2021/08/05 04:34:36;;;;;;;29.70;26.08;;;18.70;99.90;;;;;;5062481;28;20527;-68
2021/08/05 04:37:01;;;;;;;27.55;24.45;;;18.70;99.90;;;;;;5051141;28;20059;-68
2021/08/05 04:39:27;;;;;;;27.25;24.35;;;18.60;99.90;;;;;;5057301;28;20036;-68
2021/08/05 04:41:53;;;;;;;28.63;23.90;;;18.50;99.90;;;;;;5055760;28;20044;-68
2021/08/05 04:44:18;;;;;;;25.55;22.50;;;18.40;99.90;;;;;;5056395;28;20071;-68
2021/08/05 04:46:44;;;;;;;24.60;21.42;;;18.40;99.90;;;;;;5065755;28;20021;-68
2021/08/05 04:49:10;;;;;;;25.58;22.95;;;18.40;99.90;;;;;;5061306;28;20027;-68
2021/08/05 04:51:35;;;;;;;23.10;20.38;;;18.40;99.90;;;;;;5056789;28;20027;-68
2021/08/05 04:54:02;;;;;;;25.15;22.38;;;18.30;99.90;;;;;;5048550;28;20112;-68
2021/08/05 04:56:29;;;;;;;27.95;24.88;;;18.30;99.90;;;;;;5057353;28;20128;-68
2021/08/05 04:58:55;;;;;;;29.27;23.30;;;18.30;99.90;;;;;;5055518;28;20561;-68
2021/08/05 05:01:20;;;;;;;29.17;25.02;;;18.30;99.90;;;;;;5054530;28;20037;-68
2021/08/05 05:03:46;;;;;;;29.02;24.33;;;18.40;99.90;;;;;;5062339;28;20424;-68
2021/08/05 05:06:12;;;;;;;30.60;26.65;;;18.30;99.90;;;;;;5058431;28;20146;-68
2021/08/05 05:08:37;;;;;;;31.60;28.30;;;18.30;99.90;;;;;;5057199;28;20032;-68
2021/08/05 05:11:03;;;;;;;31.60;28.50;;;18.20;99.90;;;;;;5062144;28;20054;-68
2021/08/05 05:13:29;;;;;;;32.30;28.80;;;18.30;99.90;;;;;;5053140;28;20488;-68
2021/08/05 05:15:55;;;;;;;33.13;29.63;;;18.40;99.90;;;;;;5060415;28;20029;-68
2021/08/05 05:18:23;;;;;;;29.33;25.77;;;18.30;99.90;;;;;;5053944;28;20165;-68
2021/08/05 05:20:50;;;;;;;31.25;26.88;;;18.40;99.90;;;;;;5060486;28;20038;-68
2021/08/05 05:23:16;;;;;;;30.80;27.73;;;18.50;99.90;;;;;;5057621;28;20029;-68
2021/08/05 05:25:43;;;;;;;35.00;29.13;;;18.40;99.90;;;;;;5061782;28;20079;-67
2021/08/05 05:28:09;;;;;;;30.98;27.52;;;18.50;99.90;;;;;;5050412;28;20116;-68
2021/08/05 05:30:36;;;;;;;30.23;27.02;;;18.40;99.90;;;;;;5052987;28;20021;-68
2021/08/05 05:33:02;;;;;;;30.42;26.98;;;18.50;99.90;;;;;;5062455;28;20100;-68
2021/08/05 05:35:27;;;;;;;31.20;27.92;;;18.50;99.90;;;;;;5045216;28;20074;-69
2021/08/05 05:37:54;;;;;;;30.77;27.25;;;18.60;99.90;;;;;;5055263;28;20487;-68
2021/08/05 05:40:21;;;;;;;31.23;27.98;;;18.50;99.90;;;;;;5053811;28;20480;-68
2021/08/05 05:42:48;;;;;;;31.88;26.77;;;18.50;99.90;;;;;;5049667;28;20462;-68
2021/08/05 05:45:15;;;;;;;26.67;24.02;;;18.60;99.90;;;;;;5053661;28;20033;-68
2021/08/05 05:47:41;;;;;;;26.30;22.55;;;18.50;99.90;;;;;;5050671;28;20051;-68
2021/08/05 05:50:10;;;;;;;25.35;22.67;;;18.50;99.90;;;;;;5058271;28;20024;-68
2021/08/05 05:52:36;;;;;;;29.75;26.13;;;18.60;99.90;;;;;;5051495;28;20032;-68
2021/08/05 05:55:02;;;;;;;28.65;25.65;;;18.60;99.90;;;;;;5060053;28;20064;-68
2021/08/05 05:57:28;;;;;;;31.88;28.42;;;18.70;99.90;;;;;;5056154;28;20040;-68
2021/08/05 05:59:53;;;;;;;31.88;25.75;;;18.70;99.90;;;;;;5052530;28;20037;-68
2021/08/05 06:02:19;;;;;;;30.38;27.15;;;18.70;99.90;;;;;;5045634;28;20041;-69
2021/08/05 06:04:44;;;;;;;27.55;24.67;;;18.70;99.90;;;;;;5049500;28;20025;-68
2021/08/05 06:07:10;;;;;;;30.20;27.00;;;18.70;99.90;;;;;;5050399;28;20021;-69
2021/08/05 06:09:36;;;;;;;33.42;29.83;;;18.80;99.90;;;;;;5049533;28;20081;-68
2021/08/05 06:12:01;;;;;;;36.58;32.50;;;18.90;99.90;;;;;;5046837;28;20390;-68
2021/08/05 06:14:27;;;;;;;41.75;35.13;;;18.90;99.90;;;;;;5048328;28;20444;-68
2021/08/05 06:16:53;;;;;;;40.33;36.00;;;18.90;99.90;;;;;;5059568;28;20493;-68
2021/08/05 06:19:18;;;;;;;47.53;40.40;;;19.00;99.90;;;;;;5056867;28;20041;-68
2021/08/05 06:21:44;;;;;;;49.55;43.75;;;19.00;99.90;;;;;;5055254;28;20028;-68
2021/08/05 06:24:12;;;;;;;52.00;42.00;;;19.00;99.90;;;;;;5052042;28;20029;-68
2021/08/05 06:26:40;;;;;;;48.00;42.75;;;19.00;99.90;;;;;;5052284;28;20022;-68
2021/08/05 06:29:10;;;;;;;41.88;35.58;;;19.10;99.90;;;;;;5046170;28;20033;-70
2021/08/05 06:31:36;;;;;;;48.60;39.88;;;19.10;99.90;;;;;;5048731;28;20462;-68
2021/08/05 06:34:04;;;;;;;51.05;42.72;;;19.10;99.90;;;;;;5046602;28;20107;-68
2021/08/05 06:36:30;;;;;;;48.00;39.28;;;19.00;99.90;;;;;;5052260;28;20032;-68
2021/08/05 06:38:56;;;;;;;37.92;33.70;;;18.90;99.90;;;;;;5032038;28;20031;-68
2021/08/05 06:41:21;;;;;;;45.58;38.25;;;19.00;99.90;;;;;;5045058;28;20038;-69
2021/08/05 06:43:47;;;;;;;47.22;38.50;;;18.90;99.90;;;;;;5060646;28;20032;-69
2021/08/05 06:46:13;;;;;;;33.45;29.85;;;18.90;99.90;;;;;;5054471;28;20138;-68
2021/08/05 06:48:39;;;;;;;35.40;29.10;;;18.90;99.90;;;;;;5055584;28;20036;-68
2021/08/05 06:51:07;;;;;;;37.33;30.15;;;19.00;99.90;;;;;;5049857;28;20077;-69
2021/08/05 06:53:32;;;;;;;38.25;31.95;;;19.00;99.90;;;;;;5057835;28;20362;-68
2021/08/05 06:55:58;;;;;;;45.28;37.05;;;19.10;99.90;;;;;;5055043;28;20029;-68
2021/08/05 06:58:23;;;;;;;37.33;31.65;;;19.20;99.90;;;;;;5050925;28;20048;-68
2021/08/05 07:00:50;;;;;;;43.72;37.67;;;19.10;99.90;;;;;;5045040;28;20040;-70
2021/08/05 07:03:15;;;;;;;44.88;38.40;;;19.10;99.90;;;;;;5051269;28;20021;-68
2021/08/05 07:05:41;;;;;;;37.53;32.35;;;19.10;99.90;;;;;;5051177;28;20029;-68
2021/08/05 07:08:07;;;;;;;36.67;32.70;;;19.10;99.90;;;;;;5051816;28;20029;-68
2021/08/05 07:10:33;;;;;;;43.47;38.35;;;19.10;99.90;;;;;;5050097;28;20028;-68
2021/08/05 07:12:58;;;;;;;46.38;39.05;;;19.20;99.90;;;;;;5049202;28;20056;-68
2021/08/05 07:15:25;;;;;;;48.63;39.53;;;19.30;99.90;;;;;;5054713;28;20040;-69
2021/08/05 07:17:50;;;;;;;35.45;31.60;;;19.30;99.90;;;;;;5054630;28;20029;-68
2021/08/05 07:20:17;;;;;;;47.85;39.05;;;19.30;99.90;;;;;;5049436;28;20051;-69
2021/08/05 07:22:43;;;;;;;56.63;46.20;;;19.30;99.90;;;;;;5052344;28;20029;-68
2021/08/05 07:25:12;;;;;;;45.80;38.40;;;19.40;99.90;;;;;;5056891;28;20037;-68
2021/08/05 07:27:39;;;;;;;45.30;39.47;;;19.40;99.90;;;;;;5051619;28;20483;-69
2021/08/05 07:30:08;;;;;;;49.60;40.08;;;19.40;99.90;;;;;;5060726;28;20029;-69
2021/08/05 07:32:33;;;;;;;47.63;41.25;;;19.40;99.90;;;;;;5062284;28;20029;-69
2021/08/05 07:34:59;;;;;;;48.95;41.22;;;19.30;99.90;;;;;;5051657;28;20435;-69
2021/08/05 07:37:25;;;;;;;45.28;37.50;;;19.30;99.90;;;;;;5044042;28;20036;-70
2021/08/05 07:39:51;;;;;;;46.47;38.83;;;19.20;99.90;;;;;;5065511;28;20029;-69
2021/08/05 07:42:18;;;;;;;35.88;30.40;;;19.10;99.90;;;;;;5050079;28;20017;-69
2021/08/05 07:44:45;;;;;;;33.40;28.73;;;19.20;99.90;;;;;;5052885;28;20021;-69
2021/08/05 07:47:10;;;;;;;57.58;46.47;;;19.30;99.90;;;;;;5056502;28;20086;-69
2021/08/05 07:49:36;;;;;;;40.50;35.25;;;19.40;99.90;;;;;;5061836;28;20453;-68
2021/08/05 07:52:02;;;;;;;43.03;36.30;;;19.50;99.90;;;;;;5058023;28;20025;-68
2021/08/05 07:54:27;;;;;;;52.72;44.20;;;19.70;99.90;;;;;;5051807;28;20410;-68
2021/08/05 07:56:53;;;;;;;53.92;44.10;;;19.80;99.90;;;;;;5056844;28;20029;-69
2021/08/05 07:59:18;;;;;;;51.13;43.15;;;19.90;99.90;;;;;;5067405;28;20039;-68
2021/08/05 08:01:44;;;;;;;49.58;41.17;;;20.00;99.90;;;;;;5058400;28;20032;-69
2021/08/05 08:04:10;;;;;;;48.33;40.67;;;20.20;99.90;;;;;;5049542;28;20397;-68
2021/08/05 08:06:35;;;;;;;50.88;42.58;;;20.20;99.90;;;;;;5050332;28;20017;-69
2021/08/05 08:09:01;;;;;;;48.38;41.97;;;20.40;99.90;;;;;;5061135;28;20016;-68
2021/08/05 08:11:27;;;;;;;50.42;41.30;;;20.40;99.90;;;;;;5056531;28;20472;-69
2021/08/05 08:13:53;;;;;;;43.83;38.25;;;20.40;99.90;;;;;;5064416;28;20078;-69
2021/08/05 08:16:20;;;;;;;51.03;43.05;;;20.50;99.90;;;;;;5059745;28;20025;-68
2021/08/05 08:18:46;;;;;;;48.78;40.40;;;20.50;99.90;;;;;;5047515;28;20037;-68
2021/08/05 08:21:11;;;;;;;53.13;43.55;;;20.50;99.90;;;;;;5054358;28;20041;-68
2021/08/05 08:23:37;;;;;;;52.08;43.65;;;20.50;99.90;;;;;;5052465;28;20067;-68
2021/08/05 08:26:03;;;;;;;47.38;41.10;;;20.60;99.90;;;;;;5051156;28;20478;-70
2021/08/05 08:28:29;;;;;;;52.05;42.47;;;20.70;99.90;;;;;;5052114;28;20037;-68
2021/08/05 08:30:55;;;;;;;44.90;40.00;;;20.70;99.90;;;;;;5058974;28;20033;-69
2021/08/05 08:33:20;;;;;;;52.35;42.90;;;20.80;99.90;;;;;;5060738;28;20454;-69
2021/08/05 08:35:46;;;;;;;50.42;44.65;;;20.80;99.90;;;;;;5053731;28;20029;-71
2021/08/05 08:38:11;;;;;;;50.85;43.83;;;20.80;99.90;;;;;;5054444;28;20017;-69
2021/08/05 08:40:37;;;;;;;49.15;42.90;;;20.70;99.90;;;;;;5053518;28;20044;-68
2021/08/05 08:43:04;;;;;;;48.97;43.25;;;20.70;99.90;;;;;;5048443;28;20092;-70
2021/08/05 08:45:31;;;;;;;49.80;44.40;;;20.80;99.90;;;;;;5055937;28;20024;-69
2021/08/05 08:47:58;;;;;;;48.80;42.38;;;20.60;99.90;;;;;;5043562;28;20013;-69
2021/08/05 08:50:29;;;;;;;53.35;47.30;;;20.70;99.90;;;;;;5049417;28;20491;-68
2021/08/05 08:53:02;;;;;;;57.17;48.30;;;20.80;99.90;;;;;;5046823;28;20075;-68
2021/08/05 08:55:28;;;;;;;48.08;41.78;;;20.90;99.90;;;;;;5053861;28;20031;-69
2021/08/05 08:57:57;;;;;;;55.20;45.10;;;21.10;99.90;;;;;;5062158;28;20078;-71
2021/08/05 09:00:23;;;;;;;55.83;47.70;;;21.30;99.90;;;;;;5059879;28;20033;-68
2021/08/05 09:02:49;;;;;;;56.80;45.80;;;21.40;99.90;;;;;;5048324;28;20028;-68
2021/08/05 09:05:15;;;;;;;54.78;46.15;;;21.40;99.90;;;;;;5055980;28;20063;-69
2021/08/05 09:07:43;;;;;;;53.80;46.60;;;21.30;99.90;;;;;;5063187;28;20025;-68
2021/08/05 09:10:10;;;;;;;52.15;46.22;;;21.30;99.90;;;;;;5051703;28;20020;-68
2021/08/05 09:12:36;;;;;;;52.17;44.17;;;21.40;99.90;;;;;;5056998;28;20435;-69
2021/08/05 09:15:02;;;;;;;45.63;40.67;;;21.60;99.90;;;;;;5054370;28;20017;-69
2021/08/05 09:17:30;;;;;;;43.65;36.75;;;21.70;99.90;;;;;;5056834;28;20014;-70
2021/08/05 09:20:03;;;;;;;45.22;38.17;;;21.80;99.90;;;;;;5045665;28;20493;-69
2021/08/05 09:22:30;;;;;;;38.85;34.67;;;22.10;99.90;;;;;;5054785;28;20044;-69
2021/08/05 09:24:56;;;;;;;36.30;30.80;;;22.10;99.90;;;;;;5052379;28;20032;-69
2021/08/05 09:27:32;;;;;;;27.85;22.83;;;22.10;99.90;;;;;;5052693;28;20040;-69
2021/08/05 09:29:59;;;;;;;25.08;21.88;;;22.40;99.90;;;;;;5050511;28;20075;-69
2021/08/05 09:32:30;;;;;;;32.25;28.27;;;22.50;99.90;;;;;;5052129;28;20029;-70
2021/08/05 09:35:09;;;;;;;28.40;25.33;;;22.60;99.90;;;;;;5062890;28;20021;-69
2021/08/05 09:37:39;;;;;;;34.97;30.08;;;22.90;99.90;;;;;;5054272;28;20017;-69
2021/08/05 09:40:18;;;;;;;32.45;27.73;;;23.10;99.90;;;;;;5047788;28;20124;-70
2021/08/05 09:42:55;;;;;;;32.05;28.23;;;23.30;99.90;;;;;;5053486;28;20031;-69
2021/08/05 09:45:38;;;;;;;29.92;25.58;;;23.50;99.90;;;;;;5056359;28;20461;-69
2021/08/05 09:48:04;;;;;;;21.98;19.70;;;23.70;99.90;;;;;;5050271;28;20481;-69
2021/08/05 09:50:30;;;;;;;23.85;21.25;;;23.80;99.90;;;;;;5053936;28;20021;-68
2021/08/05 09:53:10;;;;;;;27.83;22.33;;;23.80;99.90;;;;;;5047526;28;20374;-68
2021/08/05 09:55:36;;;;;;;27.10;21.65;;;23.60;99.90;;;;;;5052275;28;20155;-68
2021/08/05 09:58:03;;;;;;;23.73;21.08;;;23.60;99.90;;;;;;5058131;28;20384;-68
2021/08/05 10:00:41;;;;;;;24.13;21.63;;;23.70;99.90;;;;;;5046593;28;20044;-69
2021/08/05 10:03:07;;;;;;;25.45;19.98;;;23.90;99.90;;;;;;5044710;28;20074;-69
2021/08/05 10:05:33;;;;;;;21.85;19.20;;;24.10;99.90;;;;;;5049924;28;20021;-68
2021/08/05 10:08:01;;;;;;;22.50;17.88;;;24.20;99.90;;;;;;5048672;28;20462;-69
2021/08/05 10:10:46;;;;;;;19.27;17.25;;;24.30;99.90;;;;;;5049010;28;20053;-71
2021/08/05 10:13:12;;;;;;;19.80;16.13;;;23.80;99.90;;;;;;5050765;28;20120;-69
2021/08/05 10:15:50;;;;;;;18.73;15.93;;;23.60;99.90;;;;;;5047342;28;20092;-68
2021/08/05 10:18:17;;;;;;;21.60;18.33;;;23.60;99.90;;;;;;5053567;28;20071;-69
2021/08/05 10:20:43;;;;;;;27.33;21.90;;;23.40;99.90;;;;;;5064339;28;20375;-68
2021/08/05 10:23:09;;;;;;;23.42;18.60;;;23.60;99.90;;;;;;5051808;28;20119;-69
2021/08/05 10:25:36;;;;;;;74.85;39.28;;;23.80;99.90;;;;;;5050610;28;20048;-69
2021/08/05 10:28:01;;;;;;;26.50;21.65;;;23.60;99.90;;;;;;5054133;28;20031;-69
2021/08/05 10:30:27;;;;;;;22.33;18.02;;;23.80;99.90;;;;;;5052090;28;20029;-70
2021/08/05 10:32:55;;;;;;;21.45;15.82;;;24.10;99.90;;;;;;5055716;28;20031;-69
2021/08/05 10:35:21;;;;;;;20.95;17.30;;;24.40;99.90;;;;;;5059959;28;20060;-68
2021/08/05 10:37:49;;;;;;;21.60;17.27;;;24.60;99.90;;;;;;5057508;28;20044;-70
2021/08/05 10:40:16;;;;;;;22.48;19.75;;;24.80;99.90;;;;;;5043554;28;20503;-69
2021/08/05 10:42:43;;;;;;;24.27;21.15;;;25.00;99.90;;;;;;5054593;28;20025;-69
2021/08/05 10:45:10;;;;;;;20.90;18.75;;;25.20;99.90;;;;;;5050246;28;20064;-69
2021/08/05 10:47:37;;;;;;;21.88;19.58;;;25.20;99.90;;;;;;5051678;28;20027;-69
2021/08/05 10:50:08;;;;;;;22.75;19.50;;;25.10;99.90;;;;;;5061609;28;20423;-69
2021/08/05 10:52:34;;;;;;;21.13;18.67;;;25.20;99.90;;;;;;5053268;28;20025;-69
2021/08/05 10:55:01;;;;;;;17.10;15.05;;;25.10;99.90;;;;;;5057229;28;20029;-70
2021/08/05 10:57:27;;;;;;;15.63;13.98;;;25.20;99.90;;;;;;5049233;28;20049;-69
2021/08/05 11:00:09;;;;;;;17.17;14.52;;;25.40;99.90;;;;;;5062162;28;20087;-70
2021/08/05 11:02:58;;;;;;;18.00;16.00;;;25.50;99.90;;;;;;5062389;28;20424;-70
2021/08/05 11:05:23;;;;;;;16.38;14.75;;;25.80;99.90;;;;;;5055074;28;20037;-69
2021/08/05 11:08:13;;;;;;;15.68;13.13;;;25.90;99.90;;;;;;5056488;28;20050;-69
2021/08/05 11:10:38;;;;;;;12.48;11.27;;;26.20;99.90;;;;;;5068665;28;20036;-71
2021/08/05 11:13:07;;;;;;;11.63;10.43;;;26.20;99.90;;;;;;5057454;28;20029;-70
2021/08/05 11:15:35;;;;;;;11.63;9.52;;;25.70;99.60;;;;;;5050746;28;20075;-71
2021/08/05 11:18:15;;;;;;;9.73;8.68;;;25.10;99.90;;;;;;5056841;28;20304;-70
2021/08/05 11:20:50;;;;;;;12.93;11.75;;;25.00;99.90;;;;;;5061609;28;20033;-69
2021/08/05 11:23:42;;;;;;;11.90;10.20;;;25.10;99.90;;;;;;5041201;28;20028;-69
2021/08/05 11:26:09;;;;;;;13.27;11.07;;;25.20;99.90;;;;;;5062439;28;20472;-69
2021/08/05 11:28:45;;;;;;;12.10;10.98;;;25.00;99.90;;;;;;5055846;28;20029;-68
2021/08/05 11:31:21;;;;;;;9.90;8.85;;;25.20;99.90;;;;;;5051327;28;20033;-70
2021/08/05 11:33:48;;;;;;;15.98;14.38;;;25.60;99.90;;;;;;5062094;28;20056;-69
2021/08/05 11:36:19;;;;;;;12.80;11.48;;;25.30;99.90;;;;;;5063265;28;20021;-68
2021/08/05 11:39:25;;;;;;;17.85;14.52;;;25.50;99.90;;;;;;5056218;28;20028;-68
2021/08/05 11:41:59;;;;;;;17.70;16.00;;;25.80;99.90;;;;;;5057197;28;20666;-69
2021/08/05 11:44:39;;;;;;;16.75;15.15;;;25.60;99.90;;;;;;5049567;28;20030;-69
2021/08/05 11:47:23;;;;;;;15.98;14.18;;;25.60;99.90;;;;;;5054327;28;20485;-70
2021/08/05 11:49:50;;;;;;;16.88;15.07;;;26.00;99.90;;;;;;5049051;28;20031;-68
2021/08/05 11:52:28;;;;;;;13.88;12.45;;;26.00;99.90;;;;;;5061798;28;20107;-68
2021/08/05 11:54:57;;;;;;;13.52;12.23;;;26.00;99.90;;;;;;5054275;28;20132;-69
2021/08/05 11:57:23;;;;;;;11.50;10.50;;;25.80;99.90;;;;;;5054095;28;20025;-69
2021/08/05 11:59:54;;;;;;;14.30;12.10;;;26.00;99.90;;;;;;5063404;28;20041;-69
2021/08/05 12:02:22;;;;;;;12.82;11.27;;;25.90;99.90;;;;;;5054736;28;20496;-69
2021/08/05 12:04:48;;;;;;;9.60;8.60;;;25.40;99.90;;;;;;5045380;28;20028;-70
2021/08/05 12:07:27;;;;;;;12.90;10.02;;;25.50;99.90;;;;;;5054608;28;20094;-68
2021/08/05 12:09:57;;;;;;;9.15;8.25;;;25.80;99.90;;;;;;5063609;28;20061;-69
2021/08/05 12:12:24;;;;;;;7.15;6.45;;;26.10;99.90;;;;;;5053143;28;20013;-68
2021/08/05 12:14:58;;;;;;;6.20;5.15;;;26.30;99.80;;;;;;5046556;28;20031;-68
2021/08/05 12:17:32;;;;;;;5.82;4.60;;;26.00;98.20;;;;;;5063098;28;20515;-68
2021/08/05 12:19:59;;;;;;;6.10;5.60;;;26.00;98.30;;;;;;5048583;28;20029;-67
2021/08/05 12:22:30;;;;;;;5.60;5.10;;;26.10;98.00;;;;;;5058524;28;20541;-67
2021/08/05 12:24:56;;;;;;;5.28;4.85;;;26.10;98.90;;;;;;5066781;28;20042;-67
2021/08/05 12:27:22;;;;;;;5.60;4.18;;;26.10;98.90;;;;;;5056448;28;20395;-67
2021/08/05 12:30:06;;;;;;;5.68;5.10;;;26.30;98.50;;;;;;5052272;28;20021;-67
2021/08/05 12:32:32;;;;;;;6.90;6.35;;;26.40;96.40;;;;;;5058209;28;20033;-67